createdAt,value
2018-08-23T00:00:12.126Z,0.00
2018-08-23T00:01:12.122Z,0.00
2018-08-23T00:02:12.119Z,0.00
2018-08-23T00:03:12.115Z,0.00
2018-08-23T00:04:12.110Z,0.00
2018-08-23T00:05:12.109Z,0.00
2018-08-23T00:06:12.102Z,0.00
2018-08-23T00:07:12.098Z,0.00
2018-08-23T00:08:12.095Z,0.00
2018-08-23T00:09:12.091Z,0.00
2018-08-23T00:10:12.118Z,0.00
2018-08-23T00:11:12.083Z,0.00
2018-08-23T00:12:12.079Z,0.00
2018-08-23T00:13:12.076Z,0.00
2018-08-23T00:14:12.072Z,0.00
2018-08-23T00:15:12.070Z,0.00
2018-08-23T00:16:12.063Z,0.00
2018-08-23T00:17:12.059Z,0.00
2018-08-23T00:18:12.056Z,0.00
2018-08-23T00:19:12.050Z,0.00
2018-08-23T00:20:12.047Z,0.00
2018-08-23T00:21:12.043Z,0.00
2018-08-23T00:22:12.039Z,0.00
2018-08-23T00:23:12.034Z,0.00
2018-08-23T00:24:12.030Z,0.00
2018-08-23T00:25:12.026Z,0.00
2018-08-23T00:26:12.023Z,0.00
2018-08-23T00:27:12.045Z,0.00
2018-08-23T00:28:12.017Z,0.00
2018-08-23T00:29:12.015Z,0.00
2018-08-23T00:30:12.006Z,0.00
2018-08-23T00:31:12.000Z,0.00
2018-08-23T00:32:11.996Z,0.00
2018-08-23T00:33:11.993Z,0.00
2018-08-23T00:34:11.988Z,0.00
2018-08-23T00:35:11.983Z,0.00
2018-08-23T00:36:11.978Z,0.00
2018-08-23T00:37:11.974Z,0.00
2018-08-23T00:38:11.970Z,0.00
2018-08-23T00:39:11.964Z,0.00
2018-08-23T00:40:11.960Z,0.00
2018-08-23T00:41:11.956Z,0.00
2018-08-23T00:42:11.952Z,0.00
2018-08-23T00:43:11.946Z,0.00
2018-08-23T00:44:11.942Z,0.00
2018-08-23T00:45:11.938Z,0.00
2018-08-23T00:46:11.935Z,0.00
2018-08-23T00:47:11.929Z,0.00
2018-08-23T00:48:11.924Z,0.00
2018-08-23T00:49:11.921Z,0.00
2018-08-23T00:50:11.916Z,0.00
2018-08-23T00:51:11.910Z,0.00
2018-08-23T00:52:11.918Z,0.00
2018-08-23T00:53:11.902Z,0.00
2018-08-23T00:54:11.902Z,0.00
2018-08-23T00:55:11.893Z,0.00
2018-08-23T00:56:11.888Z,0.00
2018-08-23T00:57:11.888Z,0.00
2018-08-23T00:58:11.884Z,0.00
2018-08-23T00:59:11.877Z,0.00
2018-08-23T01:00:11.870Z,0.00
2018-08-23T01:01:11.866Z,0.00
2018-08-23T01:02:11.862Z,0.00
2018-08-23T01:03:11.857Z,0.00
2018-08-23T01:04:11.853Z,0.00
2018-08-23T01:05:11.848Z,0.00
2018-08-23T01:06:11.847Z,0.00
2018-08-23T01:07:11.838Z,0.00
2018-08-23T01:08:11.834Z,0.00
2018-08-23T01:09:11.834Z,0.00
2018-08-23T01:10:11.826Z,0.00
2018-08-23T01:11:11.820Z,0.00
2018-08-23T01:12:11.816Z,0.00
2018-08-23T01:13:11.811Z,0.00
2018-08-23T01:14:11.807Z,0.00
2018-08-23T01:15:11.801Z,0.00
2018-08-23T01:16:11.797Z,0.00
2018-08-23T01:17:11.799Z,0.00
2018-08-23T01:18:11.787Z,0.00
2018-08-23T01:19:11.782Z,0.00
2018-08-23T01:20:11.808Z,0.00
2018-08-23T01:21:11.776Z,0.00
2018-08-23T01:22:11.772Z,0.00
2018-08-23T01:23:11.763Z,0.00
2018-08-23T01:24:11.761Z,0.00
2018-08-23T01:25:11.753Z,0.00
2018-08-23T01:26:11.752Z,0.00
2018-08-23T01:27:11.743Z,0.00
2018-08-23T01:28:11.738Z,0.00
2018-08-23T01:29:11.733Z,0.00
2018-08-23T01:30:11.729Z,0.00
2018-08-23T01:31:11.722Z,0.00
2018-08-23T01:32:11.718Z,0.00
2018-08-23T01:33:11.713Z,0.00
2018-08-23T01:34:11.709Z,0.00
2018-08-23T01:35:11.704Z,0.00
2018-08-23T01:36:11.698Z,0.00
2018-08-23T01:37:11.694Z,0.00
2018-08-23T01:38:11.688Z,0.00
2018-08-23T01:39:11.683Z,0.00
2018-08-23T01:40:11.679Z,0.00
2018-08-23T01:41:11.675Z,0.00
2018-08-23T01:42:11.669Z,0.00
2018-08-23T01:43:11.664Z,0.00
2018-08-23T01:44:11.658Z,0.00
2018-08-23T01:45:11.654Z,0.00
2018-08-23T01:46:11.650Z,0.00
2018-08-23T01:47:11.644Z,0.00
2018-08-23T01:48:11.643Z,0.00
2018-08-23T01:49:11.635Z,0.00
2018-08-23T01:50:11.631Z,0.00
2018-08-23T01:51:11.624Z,0.00
2018-08-23T01:52:11.620Z,0.00
2018-08-23T01:53:11.614Z,0.00
2018-08-23T01:54:11.610Z,0.00
2018-08-23T01:55:11.604Z,0.00
2018-08-23T01:56:11.600Z,0.00
2018-08-23T01:57:11.594Z,0.00
2018-08-23T01:58:11.590Z,0.00
2018-08-23T01:59:11.584Z,0.00
2018-08-23T02:00:11.580Z,0.00
2018-08-23T02:01:11.574Z,0.00
2018-08-23T02:02:11.570Z,0.00
2018-08-23T02:03:11.564Z,0.00
2018-08-23T02:04:11.560Z,0.00
2018-08-23T02:05:11.555Z,0.00
2018-08-23T02:06:11.550Z,0.00
2018-08-23T02:07:11.545Z,0.00
2018-08-23T02:08:11.542Z,0.00
2018-08-23T02:09:11.536Z,0.00
2018-08-23T02:10:11.534Z,0.00
2018-08-23T02:11:11.527Z,0.00
2018-08-23T02:12:11.520Z,0.00
2018-08-23T02:13:11.516Z,0.00
2018-08-23T02:14:11.511Z,0.00
2018-08-23T02:15:11.505Z,0.00
2018-08-23T02:16:11.501Z,0.00
2018-08-23T02:18:11.491Z,0.00
2018-08-23T02:19:11.485Z,0.00
2018-08-23T02:20:11.481Z,0.00
2018-08-23T02:21:11.476Z,0.00
2018-08-23T02:22:11.474Z,0.00
2018-08-23T02:23:11.465Z,0.00
2018-08-23T02:24:11.460Z,0.00
2018-08-23T02:25:11.456Z,0.00
2018-08-23T02:26:11.451Z,0.00
2018-08-23T02:27:11.445Z,0.00
2018-08-23T02:28:11.486Z,0.00
2018-08-23T02:29:11.441Z,0.00
2018-08-23T02:30:11.432Z,0.00
2018-08-23T02:31:11.428Z,0.00
2018-08-23T02:32:11.421Z,0.00
2018-08-23T02:33:11.416Z,0.00
2018-08-23T02:34:11.413Z,0.00
2018-08-23T02:35:11.406Z,0.00
2018-08-23T02:36:11.401Z,0.00
2018-08-23T02:37:11.396Z,0.00
2018-08-23T02:38:11.457Z,0.00
2018-08-23T02:39:11.386Z,0.00
2018-08-23T02:40:11.383Z,0.00
2018-08-23T02:41:11.377Z,0.00
2018-08-23T02:42:11.372Z,0.00
2018-08-23T02:43:11.367Z,0.00
2018-08-23T02:44:11.361Z,0.00
2018-08-23T02:45:11.357Z,0.00
2018-08-23T02:46:11.352Z,0.00
2018-08-23T02:47:11.346Z,0.00
2018-08-23T02:48:11.341Z,0.00
2018-08-23T02:49:11.336Z,0.00
2018-08-23T02:50:11.332Z,0.00
2018-08-23T02:51:11.326Z,0.00
2018-08-23T02:52:11.321Z,0.00
2018-08-23T02:53:11.316Z,0.00
2018-08-23T02:54:11.311Z,0.00
2018-08-23T02:55:11.306Z,0.00
2018-08-23T02:56:11.302Z,0.00
2018-08-23T02:57:11.296Z,0.00
2018-08-23T02:58:11.291Z,0.00
2018-08-23T02:59:11.285Z,0.00
2018-08-23T03:00:11.280Z,0.00
2018-08-23T03:01:11.275Z,0.00
2018-08-23T03:02:11.270Z,0.00
2018-08-23T03:03:11.265Z,0.00
2018-08-23T03:04:11.259Z,0.00
2018-08-23T03:05:11.255Z,0.00
2018-08-23T03:06:11.250Z,0.00
2018-08-23T03:07:11.244Z,0.00
2018-08-23T03:08:11.240Z,0.00
2018-08-23T03:09:11.234Z,0.00
2018-08-23T03:10:11.229Z,0.00
2018-08-23T03:11:11.223Z,0.00
2018-08-23T03:12:11.218Z,0.00
2018-08-23T03:13:11.214Z,0.00
2018-08-23T03:14:11.291Z,0.00
2018-08-23T03:15:11.203Z,0.00
2018-08-23T03:16:11.198Z,0.00
2018-08-23T03:17:11.192Z,0.00
2018-08-23T03:18:11.188Z,0.00
2018-08-23T03:19:11.182Z,0.00
2018-08-23T03:20:11.177Z,0.00
2018-08-23T03:21:11.172Z,0.00
2018-08-23T03:22:11.169Z,0.00
2018-08-23T03:23:11.162Z,0.00
2018-08-23T03:24:11.156Z,0.00
2018-08-23T03:25:11.151Z,0.00
2018-08-23T03:26:11.148Z,0.00
2018-08-23T03:27:11.140Z,0.00
2018-08-23T03:28:11.135Z,0.00
2018-08-23T03:29:11.130Z,0.00
2018-08-23T03:30:11.125Z,0.00
2018-08-23T03:31:11.119Z,0.00
2018-08-23T03:32:11.115Z,0.00
2018-08-23T03:33:11.110Z,0.00
2018-08-23T03:34:11.104Z,0.00
2018-08-23T03:35:11.098Z,0.00
2018-08-23T03:36:11.093Z,0.00
2018-08-23T03:37:11.089Z,0.00
2018-08-23T03:38:11.082Z,0.00
2018-08-23T03:39:11.077Z,0.00
2018-08-23T03:40:11.072Z,0.00
2018-08-23T03:41:11.067Z,0.00
2018-08-23T03:42:11.064Z,0.00
2018-08-23T03:43:11.055Z,0.00
2018-08-23T03:44:11.050Z,0.00
2018-08-23T03:45:11.045Z,0.00
2018-08-23T03:46:11.040Z,0.00
2018-08-23T03:47:11.034Z,0.00
2018-08-23T03:48:11.029Z,0.00
2018-08-23T03:49:11.024Z,0.00
2018-08-23T03:50:11.019Z,0.00
2018-08-23T03:51:11.015Z,0.00
2018-08-23T03:52:11.008Z,0.00
2018-08-23T03:53:11.002Z,0.00
2018-08-23T03:54:10.999Z,0.00
2018-08-23T03:55:10.992Z,0.00
2018-08-23T03:56:10.986Z,0.00
2018-08-23T03:57:10.981Z,0.00
2018-08-23T03:58:10.975Z,0.00
2018-08-23T03:59:10.969Z,0.00
2018-08-23T04:00:10.964Z,0.00
2018-08-23T04:01:10.959Z,0.00
2018-08-23T04:02:10.954Z,4.00
2018-08-23T04:03:10.948Z,4.00
2018-08-23T04:04:10.942Z,0.00
2018-08-23T04:05:10.937Z,4.00
2018-08-23T04:06:10.932Z,4.00
2018-08-23T04:07:10.926Z,4.00
2018-08-23T04:08:10.921Z,4.00
2018-08-23T04:09:10.915Z,8.00
2018-08-23T04:10:10.910Z,4.00
2018-08-23T04:11:10.907Z,8.00
2018-08-23T04:12:10.898Z,12.00
2018-08-23T04:13:10.893Z,12.00
2018-08-23T04:14:10.888Z,12.00
2018-08-23T04:15:10.919Z,16.00
2018-08-23T04:16:10.876Z,16.00
2018-08-23T04:17:10.871Z,20.00
2018-08-23T04:18:10.866Z,20.00
2018-08-23T04:19:10.863Z,24.00
2018-08-23T04:20:10.867Z,28.00
2018-08-23T04:21:10.849Z,36.00
2018-08-23T04:22:10.843Z,40.00
2018-08-23T04:23:10.837Z,44.00
2018-08-23T04:24:10.833Z,52.00
2018-08-23T04:25:10.829Z,60.00
2018-08-23T04:26:10.821Z,68.00
2018-08-23T04:27:10.815Z,76.00
2018-08-23T04:28:10.808Z,88.00
2018-08-23T04:29:10.803Z,96.00
2018-08-23T04:30:10.797Z,104.00
2018-08-23T04:31:10.791Z,116.00
2018-08-23T04:32:10.786Z,128.00
2018-08-23T04:33:10.783Z,140.00
2018-08-23T04:34:10.774Z,156.00
2018-08-23T04:35:10.767Z,164.00
2018-08-23T04:36:10.762Z,180.00
2018-08-23T04:37:10.756Z,196.00
2018-08-23T04:38:10.751Z,212.00
2018-08-23T04:39:10.745Z,224.00
2018-08-23T04:40:10.746Z,244.00
2018-08-23T04:41:10.734Z,260.00
2018-08-23T04:42:10.729Z,284.00
2018-08-23T04:43:10.771Z,300.00
2018-08-23T04:44:10.721Z,324.00
2018-08-23T04:45:10.711Z,344.00
2018-08-23T04:46:10.706Z,368.00
2018-08-23T04:47:10.699Z,400.00
2018-08-23T04:48:10.694Z,432.00
2018-08-23T04:49:10.689Z,468.00
2018-08-23T04:50:10.683Z,508.00
2018-08-23T04:51:10.679Z,548.00
2018-08-23T04:52:10.673Z,584.00
2018-08-23T04:53:10.665Z,624.00
2018-08-23T04:54:10.660Z,668.00
2018-08-23T04:55:10.653Z,712.00
2018-08-23T04:56:10.647Z,756.00
2018-08-23T04:57:10.641Z,804.00
2018-08-23T04:58:10.636Z,856.00
2018-08-23T04:59:10.631Z,904.00
2018-08-23T05:00:10.624Z,952.00
2018-08-23T05:01:10.619Z,1000.00
2018-08-23T05:02:10.617Z,1052.00
2018-08-23T05:03:10.606Z,1108.00
2018-08-23T05:04:10.710Z,1160.00
2018-08-23T05:05:10.595Z,1212.00
2018-08-23T05:06:10.591Z,1260.00
2018-08-23T05:07:10.584Z,1316.00
2018-08-23T05:08:10.578Z,1372.00
2018-08-23T05:09:10.574Z,1420.00
2018-08-23T05:10:10.569Z,1468.00
2018-08-23T05:11:10.562Z,1520.00
2018-08-23T05:12:10.557Z,1568.00
2018-08-23T05:13:10.553Z,1616.00
2018-08-23T05:14:10.613Z,1668.00
2018-08-23T05:15:10.542Z,1716.00
2018-08-23T05:16:10.537Z,1764.00
2018-08-23T05:17:10.530Z,1812.00
2018-08-23T05:18:10.525Z,1860.00
2018-08-23T05:19:10.519Z,1912.00
2018-08-23T05:20:10.513Z,1948.00
2018-08-23T05:21:10.509Z,1984.00
2018-08-23T05:22:10.505Z,2020.00
2018-08-23T05:23:10.589Z,2056.00
2018-08-23T05:24:10.492Z,2092.00
2018-08-23T05:25:10.487Z,2128.00
2018-08-23T05:26:10.482Z,2164.00
2018-08-23T05:27:10.476Z,2212.00
2018-08-23T05:28:10.472Z,2268.00
2018-08-23T05:29:10.467Z,2320.00
2018-08-23T05:30:10.462Z,2376.00
2018-08-23T05:31:10.456Z,2436.00
2018-08-23T05:32:10.451Z,2504.00
2018-08-23T05:33:10.446Z,2564.00
2018-08-23T05:34:10.441Z,2616.00
2018-08-23T05:35:10.435Z,2672.00
2018-08-23T05:36:10.434Z,2736.00
2018-08-23T05:37:10.426Z,2788.00
2018-08-23T05:38:10.421Z,2840.00
2018-08-23T05:39:10.415Z,2884.00
2018-08-23T05:40:10.411Z,2924.00
2018-08-23T05:41:10.405Z,2968.00
2018-08-23T05:42:10.401Z,3016.00
2018-08-23T05:43:10.396Z,3068.00
2018-08-23T05:44:10.391Z,3128.00
2018-08-23T05:45:10.387Z,3200.00
2018-08-23T05:46:10.381Z,3280.00
2018-08-23T05:47:10.376Z,3368.00
2018-08-23T05:48:10.371Z,3452.00
2018-08-23T05:49:10.367Z,3544.00
2018-08-23T05:50:10.362Z,3628.00
2018-08-23T05:51:10.357Z,3708.00
2018-08-23T05:52:10.352Z,3772.00
2018-08-23T05:53:10.348Z,3832.00
2018-08-23T05:54:10.347Z,3896.00
2018-08-23T05:55:10.339Z,3956.00
2018-08-23T05:56:10.334Z,4036.00
2018-08-23T05:57:10.330Z,4120.00
2018-08-23T05:58:10.329Z,4220.00
2018-08-23T05:59:10.321Z,4300.00
2018-08-23T06:00:10.317Z,4368.00
2018-08-23T06:01:10.317Z,4428.00
2018-08-23T06:02:10.310Z,4492.00
2018-08-23T06:03:10.304Z,4564.00
2018-08-23T06:04:10.300Z,4660.00
2018-08-23T06:05:10.296Z,4752.00
2018-08-23T06:06:10.292Z,4836.00
2018-08-23T06:07:10.288Z,4904.00
2018-08-23T06:08:10.345Z,4964.00
2018-08-23T06:09:10.279Z,5044.00
2018-08-23T06:10:10.276Z,5128.00
2018-08-23T06:11:10.272Z,5192.00
2018-08-23T06:12:10.267Z,5280.00
2018-08-23T06:13:10.264Z,5388.00
2018-08-23T06:14:10.282Z,5452.00
2018-08-23T06:15:10.255Z,5520.00
2018-08-23T06:16:10.253Z,5580.00
2018-08-23T06:17:10.250Z,5632.00
2018-08-23T06:18:10.251Z,5680.00
2018-08-23T06:19:10.238Z,5772.00
2018-08-23T06:20:10.291Z,5848.00
2018-08-23T06:21:10.231Z,5916.00
2018-08-23T06:22:10.228Z,5980.00
2018-08-23T06:23:10.226Z,6028.00
2018-08-23T06:24:10.219Z,6088.00
2018-08-23T06:25:10.216Z,6172.00
2018-08-23T06:26:10.212Z,6248.00
2018-08-23T06:27:10.208Z,6336.00
2018-08-23T06:28:10.205Z,6452.00
2018-08-23T06:29:10.201Z,6548.00
2018-08-23T06:30:10.199Z,6648.00
2018-08-23T06:31:10.194Z,6764.00
2018-08-23T06:32:10.201Z,6856.00
2018-08-23T06:33:10.348Z,6932.00
2018-08-23T06:34:10.210Z,6968.00
2018-08-23T06:35:10.181Z,7012.00
2018-08-23T06:36:10.178Z,7044.00
2018-08-23T06:37:10.175Z,7048.00
2018-08-23T06:38:10.176Z,7108.00
2018-08-23T06:39:10.174Z,7160.00
2018-08-23T06:40:10.165Z,7244.00
2018-08-23T06:41:10.163Z,7304.00
2018-08-23T06:42:10.160Z,7424.00
2018-08-23T06:43:10.155Z,7556.00
2018-08-23T06:44:10.153Z,7704.00
2018-08-23T06:45:10.150Z,7820.00
2018-08-23T06:46:10.175Z,7932.00
2018-08-23T06:47:10.144Z,8040.00
2018-08-23T06:48:10.141Z,8060.00
2018-08-23T06:49:10.139Z,8092.00
2018-08-23T06:50:10.136Z,8124.00
2018-08-23T06:51:10.174Z,8152.00
2018-08-23T06:52:10.132Z,8268.00
2018-08-23T06:53:10.127Z,8656.00
2018-08-23T06:54:10.126Z,8732.00
2018-08-23T06:55:10.122Z,8608.00
2018-08-23T06:56:10.119Z,8476.00
2018-08-23T06:57:10.117Z,8516.00
2018-08-23T06:58:10.119Z,8624.00
2018-08-23T06:59:10.111Z,8684.00
2018-08-23T07:00:10.110Z,8744.00
2018-08-23T07:01:10.106Z,8808.00
2018-08-23T07:02:10.104Z,8892.00
2018-08-23T07:03:10.101Z,8992.00
2018-08-23T07:04:10.099Z,9992.00
2018-08-23T07:05:10.097Z,11032.00
2018-08-23T07:06:10.095Z,11304.00
2018-08-23T07:07:10.112Z,13520.00
2018-08-23T07:08:10.095Z,14240.00
2018-08-23T07:09:10.088Z,13716.00
2018-08-23T07:10:10.086Z,14272.00
2018-08-23T07:11:10.083Z,13316.00
2018-08-23T07:12:10.081Z,14748.00
2018-08-23T07:13:10.080Z,14952.00
2018-08-23T07:14:10.078Z,13908.00
2018-08-23T07:15:10.076Z,15820.00
2018-08-23T07:16:10.075Z,18112.00
2018-08-23T07:17:10.141Z,18400.00
2018-08-23T07:18:10.073Z,18656.00
2018-08-23T07:19:10.072Z,18848.00
2018-08-23T07:20:10.071Z,19072.00
2018-08-23T07:21:10.088Z,19360.00
2018-08-23T07:22:10.072Z,19712.00
2018-08-23T07:23:10.071Z,19712.00
2018-08-23T07:24:10.091Z,19872.00
2018-08-23T07:25:10.072Z,20320.00
2018-08-23T07:26:10.077Z,20480.00
2018-08-23T07:27:10.119Z,20608.00
2018-08-23T07:28:10.077Z,20768.00
2018-08-23T07:29:10.092Z,21056.00
2018-08-23T07:30:10.116Z,21152.00
2018-08-23T07:31:10.084Z,21312.00
2018-08-23T07:32:10.088Z,21632.00
2018-08-23T07:33:10.103Z,21728.00
2018-08-23T07:34:10.096Z,22016.00
2018-08-23T07:35:10.099Z,21984.00
2018-08-23T07:36:10.104Z,22368.00
2018-08-23T07:37:10.109Z,22688.00
2018-08-23T07:38:10.166Z,22912.00
2018-08-23T07:39:10.129Z,23040.00
2018-08-23T07:40:10.123Z,23200.00
2018-08-23T07:41:10.129Z,23200.00
2018-08-23T07:42:10.134Z,23136.00
2018-08-23T07:43:10.237Z,23264.00
2018-08-23T07:44:10.145Z,23392.00
2018-08-23T07:45:10.151Z,22624.00
2018-08-23T07:46:10.157Z,23616.00
2018-08-23T07:47:10.164Z,24480.00
2018-08-23T07:48:10.169Z,24032.00
2018-08-23T07:49:10.175Z,24768.00
2018-08-23T07:50:10.229Z,24256.00
2018-08-23T07:51:10.187Z,24640.00
2018-08-23T07:52:10.194Z,22976.00
2018-08-23T07:53:10.334Z,23104.00
2018-08-23T07:54:10.207Z,18528.00
2018-08-23T07:55:10.217Z,26208.00
2018-08-23T07:56:10.219Z,25152.00
2018-08-23T07:57:10.226Z,26080.00
2018-08-23T07:58:10.233Z,25536.00
2018-08-23T07:59:10.238Z,25760.00
2018-08-23T08:00:10.245Z,25824.00
2018-08-23T08:01:10.252Z,26016.00
2018-08-23T08:02:10.259Z,26016.00
2018-08-23T08:03:10.265Z,25856.00
2018-08-23T08:04:10.273Z,26496.00
2018-08-23T08:05:10.284Z,26944.00
2018-08-23T08:06:10.288Z,27104.00
2018-08-23T08:07:10.295Z,27168.00
2018-08-23T08:08:10.303Z,27328.00
2018-08-23T08:09:10.311Z,27392.00
2018-08-23T08:10:10.319Z,27552.00
2018-08-23T08:11:10.327Z,27584.00
2018-08-23T08:12:10.361Z,27840.00
2018-08-23T08:13:10.344Z,27712.00
2018-08-23T08:14:10.353Z,27872.00
2018-08-23T08:15:10.651Z,27488.00
2018-08-23T08:16:10.369Z,27936.00
2018-08-23T08:17:10.377Z,27936.00
2018-08-23T08:18:10.387Z,28576.00
2018-08-23T08:19:10.394Z,28608.00
2018-08-23T08:20:10.403Z,29792.00
2018-08-23T08:21:10.411Z,29376.00
2018-08-23T08:22:10.420Z,29856.00
2018-08-23T08:23:10.428Z,30496.00
2018-08-23T08:24:10.437Z,31328.00
2018-08-23T08:25:10.445Z,31680.00
2018-08-23T08:26:10.454Z,31808.00
2018-08-23T08:27:10.532Z,32096.00
2018-08-23T08:28:10.472Z,33120.00
2018-08-23T08:29:10.484Z,33664.00
2018-08-23T08:30:10.489Z,34208.00
2018-08-23T08:31:10.497Z,32960.00
2018-08-23T08:32:10.507Z,35392.00
2018-08-23T08:33:10.584Z,36192.00
2018-08-23T08:34:10.528Z,37152.00
2018-08-23T08:35:10.535Z,37024.00
2018-08-23T08:36:10.545Z,39072.00
2018-08-23T08:37:10.557Z,39456.00
2018-08-23T08:38:10.565Z,37536.00
2018-08-23T08:39:10.573Z,40224.00
2018-08-23T08:40:10.584Z,43232.00
2018-08-23T08:41:10.595Z,43776.00
2018-08-23T08:42:10.605Z,45536.00
2018-08-23T08:43:10.614Z,49984.00
2018-08-23T08:44:10.628Z,49216.00
2018-08-23T08:45:10.636Z,54048.00
2018-08-23T08:46:10.646Z,47808.00
2018-08-23T08:47:10.655Z,56416.00
2018-08-23T08:48:10.667Z,56992.00
2018-08-23T08:49:10.678Z,62752.00
2018-08-23T08:50:10.689Z,60640.00
2018-08-23T08:51:10.698Z,60832.00
2018-08-23T08:52:10.710Z,78688.00
2018-08-23T08:53:10.720Z,67872.00
2018-08-23T08:54:10.732Z,78432.00
2018-08-23T08:55:10.741Z,76672.00
2018-08-23T08:56:10.751Z,86464.00
2018-08-23T08:57:10.772Z,80160.00
2018-08-23T08:58:10.773Z,82304.00
2018-08-23T08:59:10.786Z,89728.00
2018-08-23T09:00:10.794Z,83808.00
2018-08-23T09:01:10.805Z,86048.00
2018-08-23T09:02:10.816Z,79392.00
2018-08-23T09:03:10.842Z,92192.00
2018-08-23T09:04:10.837Z,91072.00
2018-08-23T09:05:10.849Z,94912.00
2018-08-23T09:06:10.860Z,80000.00
2018-08-23T09:07:10.870Z,92064.00
2018-08-23T09:08:10.881Z,91072.00
2018-08-23T09:09:10.892Z,83936.00
2018-08-23T09:10:10.904Z,89728.00
2018-08-23T09:11:10.917Z,83776.00
2018-08-23T09:12:10.927Z,94432.00
2018-08-23T09:13:10.939Z,76256.00
2018-08-23T09:14:10.951Z,76704.00
2018-08-23T09:15:10.962Z,74240.00
2018-08-23T09:16:10.974Z,79872.00
2018-08-23T09:17:10.986Z,79008.00
2018-08-23T09:18:10.998Z,60640.00
2018-08-23T09:19:11.009Z,73792.00
2018-08-23T09:20:11.021Z,65376.00
2018-08-23T09:21:11.033Z,66240.00
2018-08-23T09:22:11.045Z,65152.00
2018-08-23T09:23:11.056Z,59264.00
2018-08-23T09:24:11.068Z,73472.00
2018-08-23T09:25:11.125Z,58304.00
2018-08-23T09:26:11.091Z,63232.00
2018-08-23T09:27:11.105Z,62688.00
2018-08-23T09:28:11.115Z,61024.00
2018-08-23T09:29:11.125Z,70944.00
2018-08-23T09:30:11.138Z,65408.00
2018-08-23T09:31:11.148Z,66432.00
2018-08-23T09:32:11.229Z,70784.00
2018-08-23T09:33:11.172Z,71488.00
2018-08-23T09:34:11.183Z,67296.00
2018-08-23T09:35:11.320Z,73280.00
2018-08-23T09:36:11.205Z,49920.00
2018-08-23T09:37:11.216Z,72416.00
2018-08-23T09:38:11.228Z,71552.00
2018-08-23T09:39:11.238Z,69280.00
2018-08-23T09:40:11.250Z,71392.00
2018-08-23T09:41:11.261Z,68000.00
2018-08-23T09:42:11.273Z,69472.00
2018-08-23T09:43:11.285Z,70144.00
2018-08-23T09:44:11.295Z,67552.00
2018-08-23T09:45:11.309Z,68352.00
2018-08-23T09:46:11.318Z,63520.00
2018-08-23T09:47:11.328Z,66880.00
2018-08-23T09:48:11.340Z,71776.00
2018-08-23T09:49:11.351Z,63008.00
2018-08-23T09:50:11.435Z,66880.00
2018-08-23T09:51:11.430Z,64832.00
2018-08-23T09:52:11.425Z,68576.00
2018-08-23T09:53:11.401Z,61056.00
2018-08-23T09:54:11.409Z,64896.00
2018-08-23T09:55:11.420Z,69312.00
2018-08-23T09:56:11.432Z,63488.00
2018-08-23T09:57:11.443Z,67264.00
2018-08-23T09:58:11.455Z,64832.00
2018-08-23T09:59:11.466Z,70144.00
2018-08-23T10:00:11.477Z,65600.00
2018-08-23T10:01:11.490Z,65568.00
2018-08-23T10:02:11.502Z,67744.00
2018-08-23T10:03:11.513Z,70048.00
2018-08-23T10:04:11.529Z,64768.00
2018-08-23T10:05:11.539Z,70816.00
2018-08-23T10:06:11.549Z,73664.00
2018-08-23T10:07:11.560Z,73632.00
2018-08-23T10:08:11.572Z,71296.00
2018-08-23T10:09:11.584Z,72384.00
2018-08-23T10:10:11.598Z,79296.00
2018-08-23T10:11:11.608Z,78528.00
2018-08-23T10:12:11.619Z,82240.00
2018-08-23T10:13:11.631Z,77216.00
2018-08-23T10:14:11.642Z,81632.00
2018-08-23T10:15:11.653Z,74880.00
2018-08-23T10:16:11.664Z,80384.00
2018-08-23T10:17:11.676Z,79744.00
2018-08-23T10:18:11.688Z,79616.00
2018-08-23T10:19:11.698Z,77600.00
2018-08-23T10:20:11.710Z,75360.00
2018-08-23T10:21:11.722Z,78560.00
2018-08-23T10:22:11.733Z,78048.00
2018-08-23T10:23:11.744Z,71872.00
2018-08-23T10:24:11.756Z,79488.00
2018-08-23T10:25:11.768Z,69184.00
2018-08-23T10:26:11.780Z,74368.00
2018-08-23T10:27:11.791Z,72736.00
2018-08-23T10:28:11.805Z,82368.00
2018-08-23T10:29:11.816Z,79616.00
2018-08-23T10:30:11.827Z,75328.00
2018-08-23T10:31:11.841Z,84224.00
2018-08-23T10:32:11.977Z,74528.00
2018-08-23T10:33:11.866Z,79872.00
2018-08-23T10:34:11.875Z,79456.00
2018-08-23T10:35:11.886Z,75808.00
2018-08-23T10:36:11.898Z,82304.00
2018-08-23T10:37:11.910Z,73600.00
2018-08-23T10:38:11.976Z,76064.00
2018-08-23T10:39:11.934Z,79968.00
2018-08-23T10:40:11.947Z,72704.00
2018-08-23T10:41:11.965Z,74848.00
2018-08-23T10:42:11.973Z,69856.00
2018-08-23T10:43:11.983Z,81632.00
2018-08-23T10:44:12.003Z,76128.00
2018-08-23T10:45:12.009Z,78176.00
2018-08-23T10:46:12.023Z,75616.00
2018-08-23T10:47:12.037Z,75520.00
2018-08-23T10:48:12.049Z,84480.00
2018-08-23T10:49:12.057Z,81344.00
2018-08-23T10:50:12.070Z,78080.00
2018-08-23T10:51:12.260Z,77568.00
2018-08-23T10:52:12.095Z,74688.00
2018-08-23T10:53:12.107Z,80192.00
2018-08-23T10:54:12.120Z,45568.00
2018-08-23T10:55:12.131Z,81824.00
2018-08-23T10:56:12.143Z,80224.00
2018-08-23T10:57:12.155Z,79648.00
2018-08-23T10:58:12.170Z,82656.00
2018-08-23T10:59:12.373Z,86496.00
2018-08-23T11:00:12.188Z,83264.00
2018-08-23T11:01:12.200Z,76864.00
2018-08-23T11:02:12.215Z,75904.00
2018-08-23T11:03:12.222Z,77472.00
2018-08-23T11:04:12.236Z,78432.00
2018-08-23T11:05:12.246Z,76288.00
2018-08-23T11:06:12.258Z,75776.00
2018-08-23T11:07:12.267Z,68448.00
2018-08-23T11:08:12.280Z,70368.00
2018-08-23T11:09:12.290Z,69472.00
2018-08-23T11:10:12.304Z,70688.00
2018-08-23T11:11:12.312Z,67680.00
2018-08-23T11:12:12.323Z,66432.00
2018-08-23T11:13:12.338Z,69696.00
2018-08-23T11:14:12.346Z,58944.00
2018-08-23T11:15:12.356Z,62528.00
2018-08-23T11:16:12.371Z,63872.00
2018-08-23T11:17:12.469Z,64576.00
2018-08-23T11:18:12.391Z,65504.00
2018-08-23T11:19:12.401Z,66848.00
2018-08-23T11:20:12.413Z,63840.00
2018-08-23T11:21:12.424Z,58720.00
2018-08-23T11:22:12.435Z,61472.00
2018-08-23T11:23:12.489Z,61664.00
2018-08-23T11:24:12.457Z,60640.00
2018-08-23T11:25:12.469Z,58176.00
2018-08-23T11:26:12.480Z,59584.00
2018-08-23T11:27:12.493Z,59616.00
2018-08-23T11:28:12.502Z,59168.00
2018-08-23T11:29:12.514Z,57696.00
2018-08-23T11:30:12.525Z,57824.00
2018-08-23T11:31:12.535Z,57664.00
2018-08-23T11:32:12.549Z,54688.00
2018-08-23T11:33:12.558Z,53632.00
2018-08-23T11:34:12.569Z,51520.00
2018-08-23T11:35:12.681Z,52384.00
2018-08-23T11:36:12.590Z,53888.00
2018-08-23T11:37:12.605Z,54688.00
2018-08-23T11:38:12.611Z,53536.00
2018-08-23T11:39:12.621Z,49184.00
2018-08-23T11:40:12.632Z,49920.00
2018-08-23T11:41:12.642Z,51008.00
2018-08-23T11:42:12.652Z,51648.00
2018-08-23T11:43:12.663Z,50752.00
2018-08-23T11:44:12.673Z,33312.00
2018-08-23T11:45:12.683Z,45280.00
2018-08-23T11:46:12.693Z,52352.00
2018-08-23T11:47:12.703Z,51136.00
2018-08-23T11:48:12.714Z,48544.00
2018-08-23T11:49:12.726Z,46720.00
2018-08-23T11:50:12.735Z,45952.00
2018-08-23T11:51:12.747Z,44768.00
2018-08-23T11:52:12.755Z,43616.00
2018-08-23T11:53:12.812Z,45664.00
2018-08-23T11:54:12.777Z,47328.00
2018-08-23T11:55:12.787Z,48032.00
2018-08-23T11:56:12.802Z,47968.00
2018-08-23T11:57:12.808Z,46688.00
2018-08-23T11:58:12.818Z,46432.00
2018-08-23T11:59:12.885Z,46848.00
2018-08-23T12:00:12.845Z,44896.00
2018-08-23T12:01:12.850Z,43488.00
2018-08-23T12:02:12.861Z,42240.00
2018-08-23T12:03:12.872Z,40960.00
2018-08-23T12:04:12.881Z,38784.00
2018-08-23T12:05:12.892Z,40288.00
2018-08-23T12:06:12.903Z,38304.00
2018-08-23T12:07:12.913Z,39488.00
2018-08-23T12:08:12.924Z,39264.00
2018-08-23T12:09:12.935Z,23904.00
2018-08-23T12:10:12.946Z,33504.00
2018-08-23T12:11:12.958Z,32928.00
2018-08-23T12:12:12.967Z,38496.00
2018-08-23T12:13:12.977Z,37568.00
2018-08-23T12:14:12.990Z,35904.00
2018-08-23T12:15:12.997Z,35296.00
2018-08-23T12:16:13.008Z,35072.00
2018-08-23T12:17:13.019Z,33472.00
2018-08-23T12:18:13.030Z,32320.00
2018-08-23T12:19:13.039Z,31200.00
2018-08-23T12:20:13.050Z,26496.00
2018-08-23T12:21:13.061Z,22880.00
2018-08-23T12:22:13.072Z,22528.00